My Meet Scores
Nicole Sienkiewicz, GymNasti - MyMeetScores.com
Top100 | Top Teams | Upcoming Meets | Completed Meets | Latest | Add Scores | Help| Support | Bookmark and Share

Nicole Sienkiewicz, GymNasti
Personal Bests
LevelVault BarsBeamFloorAA
39.2009.350 8.8008.77535.900
48.9009.075 9.4009.12536.275
59.8509.625 9.3759.30038.125
Scores on America's Top 100as of 09.25.2022
Year Level Vault Bars Beam Floor AA
2022 59.85038.125

Click here to view our exclusive Top 100 Collection
Meet Scores
Date Meet Team Session Level Division Vault Bars Beam Floor AA
2022-03-18 Level 4 & 5 Illinois State Championships Gym Nasti 9 5 Sr B 9.850 1 9.625 3 9.350 3T 9.300 3 38.125 1
2022-03-10 Lucky Invite Gym Nasti A13 5 Older 9.600 2 9.400 1 8.675 6T 9.000 9T 36.675 1
2022-02-24 Great Western Invitational - Women%27s GymNasti 7B 5 Cowgirl 9.600 1 9.375 1T 9.050 5 9.175 9 37.200 1
2022-02-18 Women's Midwest Open 2022 Gym Nasti 1 5 Senior A 9.650 2 9.400 3 9.100 5 8.000 13 36.150 8
2022-02-11 SCGA Classic 2022 Gym Nasti SA6 5 Sr A 9.250 3T 8.650 8 8.400 10 8.875 7T 35.175 5
2022-01-07 St Jude Benefit Meet 2022 GymNasti 7A 5 Sr A 9.475 2 9.300 3 8.150 13 8.625 4T 35.550 5
2021-12-10 St. Nick Invite 2021 Gym Nasti 7A 5 SrA 9.450 1T 9.475 2 9.150 3 9.175 2 37.250 2
2021-03-18 Level 5 & Xcel Gold State Gym Nasti 2 5 Jr C 9.250 7T 9.400 3 9.375 6 8.900 16 36.925 7
2021-03-12 LUCKY INVITATIONAL Gym Nasti A01 5 Jr A 8.950 3T 8.700 4T 8.100 11 9.075 4 34.825 4
2021-02-27 2021 Energym Spring Classic GymNasti 4 5 JrA 9.150 4T 8.600 6 9.325 4 9.000 4 36.075 4
2021-02-19 Women's Midwest Open 2021 Gym Nasti 09A 5 Junior A 9.200 4T 9.200 3 8.800 8T 8.525 11 35.725 5
2021-02-12 Super Girl Invite GymNasti 3 5 Middle 9.050 8 9.300 5T 8.450 8 8.900 7 35.700 8
2020-03-06 Illinois Level 4 State Championships Legacy Elite Gymnastics LLC 4 4 Youth E 8.900 14 9.050 11T 9.400 11 8.925 19 36.275 13
2020-02-29 Yurchenko Invitational Legacy Elite - Aurora 3 4 Level 4 Junior B 8.675 8 9.075 5 9.075 7 9.125 7 35.950 6
2020-02-14 Big Classic Legacy Elite Gymnastics LLC 3B 4 Child D 7.175 54 9.000 19T 9.375 23T 8.600 40T 34.150 31
2020-01-31 LEgacy Elite Classic Legacy Elite Gymnastics LLC 6 4 Ch B 8.650 6T 8.000 9 9.225 1 9.100 6 34.975 5
2020-01-24 King Arthur Invitational Legacy Elite Gymnastics LLC 6 4 SR A 8.150 11 8.150 10 8.950 9 8.850 8 34.100 11
2020-01-10 Leenda's Island Adventure Legacy Elite Gymnastics LLC PG6 4 9 Year Old 8.475 10 8.000 12T 9.025 4 9.100 1T 34.600 8
2019-03-08 2019 Illinois Level 3 State Championship Legacy Elite Gymnastics LLC 2 3 Jr A 9.200 20T 9.350 15 8.575 22 8.775 22T 35.900 20T
2019-02-23 Kinetic Classic 2019 Legacy Elite Gymnastics LLC 1 3 Middle 8.375 45 9.200 16 8.800 30T 8.650 37 35.025 32T
2019-02-15 Big ClassicBIG CLASSIC Legacy Elite Gymnastics LLC 1A 3 Child C 8.975 11 9.350 3 8.725 9 8.450 11 35.500 7
2019-01-25 King Arthur Invitational Legacy Elite Gymnastics LLC 8 3 SR A 9.150 12 8.725 15 8.550 16 8.550 16 34.975 15
2019-01-11 Legacy Elite Classic Legacy Elite Gymnastics LLC 3B 3 JrB 9.000 12 8.650 11 8.150 12 8.325 12 34.125 11
2019-01-04 Leenda's Island Adventure Legacy Elite Gymnastics LLC G02 3 8 Year Old 8.950 13T 8.925 6 8.000 12 7.525 15T 33.400 13
2018-12-14 Hawaiian Pineapple Classic Legacy Elite Gymnastics LLC 2A 3 Age9 8.875 11 8.650 11 8.350 16 7.875 24 33.750 18
Get your scores on
a t-shirt, pin, or hoodie